createdAt,value
2022-11-04T00:02:22.076Z,99.90
2022-11-04T00:04:52.239Z,99.90
2022-11-04T00:07:46.009Z,99.90
2022-11-04T00:10:16.138Z,99.90
2022-11-04T00:12:53.205Z,99.90
2022-11-04T00:15:36.281Z,99.90
2022-11-04T00:18:06.674Z,99.90
2022-11-04T00:20:55.714Z,99.90
2022-11-04T00:23:40.933Z,99.90
2022-11-04T00:26:25.124Z,99.90
2022-11-04T00:28:55.498Z,99.90
2022-11-04T00:31:38.081Z,99.90
2022-11-04T00:34:08.285Z,99.90
2022-11-04T00:36:38.582Z,99.90
2022-11-04T00:39:13.449Z,99.90
2022-11-04T00:41:45.908Z,99.90
2022-11-04T00:44:16.736Z,99.90
2022-11-04T00:46:49.932Z,99.90
2022-11-04T00:49:20.146Z,99.90
2022-11-04T00:51:53.411Z,99.90
2022-11-04T00:54:26.708Z,99.90
2022-11-04T00:56:56.767Z,99.90
2022-11-04T00:59:26.977Z,99.90
2022-11-04T01:02:00.292Z,99.90
2022-11-04T01:04:36.325Z,99.90
2022-11-04T01:07:07.419Z,99.90
2022-11-04T01:09:42.256Z,99.90
2022-11-04T01:12:12.316Z,99.90
2022-11-04T01:14:42.432Z,99.90
2022-11-04T01:17:13.045Z,99.90
2022-11-04T01:19:43.151Z,99.90
2022-11-04T01:22:13.739Z,99.90
2022-11-04T01:24:46.523Z,99.90
2022-11-04T01:27:16.847Z,99.90
2022-11-04T01:29:47.070Z,99.90
2022-11-04T01:32:21.977Z,99.90
2022-11-04T01:34:52.368Z,99.90
2022-11-04T01:37:22.792Z,99.90
2022-11-04T01:39:55.807Z,99.90
2022-11-04T01:42:27.213Z,99.90
2022-11-04T01:45:04.378Z,99.90
2022-11-04T01:47:47.270Z,99.90
2022-11-04T01:50:25.535Z,99.90
2022-11-04T01:53:05.568Z,99.90
2022-11-04T01:56:04.102Z,99.90
2022-11-04T01:58:38.099Z,99.90
2022-11-04T02:01:08.811Z,99.90
2022-11-04T02:03:52.081Z,99.90
2022-11-04T02:06:25.354Z,99.90
2022-11-04T02:08:56.071Z,99.90
2022-11-04T02:11:42.447Z,99.90
2022-11-04T02:14:15.436Z,99.90
2022-11-04T02:16:49.658Z,99.90
2022-11-04T02:19:52.650Z,99.90
2022-11-04T02:22:57.002Z,99.90
2022-11-04T02:26:13.415Z,99.90
2022-11-04T02:29:41.102Z,99.90
2022-11-04T02:32:39.138Z,99.90
2022-11-04T02:35:21.210Z,99.90
2022-11-04T02:38:02.147Z,99.90
2022-11-04T02:40:45.750Z,99.90
2022-11-04T02:43:27.917Z,99.90
2022-11-04T02:46:08.407Z,99.90
2022-11-04T02:48:49.716Z,99.90
2022-11-04T02:51:29.038Z,99.90
2022-11-04T02:54:12.333Z,99.90
2022-11-04T02:56:51.053Z,99.90
2022-11-04T02:59:30.763Z,99.90
2022-11-04T03:02:06.565Z,99.90
2022-11-04T03:04:50.029Z,99.90
2022-11-04T03:07:29.611Z,99.90
2022-11-04T03:10:05.728Z,99.90
2022-11-04T03:12:48.262Z,99.90
2022-11-04T03:15:27.442Z,99.90
2022-11-04T03:18:07.935Z,99.90
2022-11-04T03:20:51.587Z,99.90
2022-11-04T03:23:24.573Z,99.90
2022-11-04T03:26:07.444Z,99.90
2022-11-04T03:28:49.622Z,99.90
2022-11-04T03:31:32.906Z,99.90
2022-11-04T03:34:03.034Z,99.90
2022-11-04T03:36:35.842Z,99.90
2022-11-04T03:39:08.895Z,99.90
2022-11-04T03:41:46.606Z,99.90
2022-11-04T03:44:19.431Z,99.90
2022-11-04T03:46:49.986Z,99.90
2022-11-04T03:49:20.381Z,99.90
2022-11-04T03:51:53.691Z,99.90
2022-11-04T03:54:24.215Z,99.90
2022-11-04T03:57:36.126Z,99.90
2022-11-04T04:00:15.347Z,99.90
2022-11-04T04:03:13.806Z,99.90
2022-11-04T04:05:54.958Z,99.90
2022-11-04T04:08:42.427Z,99.90
2022-11-04T04:11:29.721Z,99.90
2022-11-04T04:14:08.924Z,99.90
2022-11-04T04:16:45.236Z,99.90
2022-11-04T04:19:24.176Z,99.90
2022-11-04T04:22:15.188Z,99.90
2022-11-04T04:25:04.983Z,99.90
2022-11-04T04:27:36.929Z,99.90
2022-11-04T04:30:15.073Z,99.90
2022-11-04T04:32:54.036Z,99.90
2022-11-04T04:35:44.380Z,99.90
2022-11-04T04:38:36.377Z,99.90
2022-11-04T04:41:28.795Z,99.90
2022-11-04T04:44:15.654Z,99.90
2022-11-04T04:46:50.576Z,99.90
2022-11-04T04:49:23.478Z,99.90
2022-11-04T04:51:56.713Z,99.90
2022-11-04T04:54:26.906Z,99.90
2022-11-04T04:57:01.792Z,99.90
2022-11-04T04:59:40.797Z,99.90
2022-11-04T05:02:14.153Z,99.90
2022-11-04T05:04:44.449Z,99.90
2022-11-04T05:07:24.383Z,99.90
2022-11-04T05:09:55.080Z,99.90
2022-11-04T05:12:47.958Z,99.90
2022-11-04T05:15:20.545Z,99.90
2022-11-04T05:17:50.881Z,99.90
2022-11-04T05:20:21.502Z,99.90
2022-11-04T05:23:07.173Z,99.90
2022-11-04T05:25:39.873Z,99.90
2022-11-04T05:28:12.889Z,99.90
2022-11-04T05:30:46.731Z,99.90
2022-11-04T05:33:16.901Z,99.90
2022-11-04T05:35:47.319Z,99.90
2022-11-04T05:38:17.501Z,99.90
2022-11-04T05:40:50.719Z,99.90
2022-11-04T05:43:23.764Z,99.90
2022-11-04T05:45:53.928Z,99.90
2022-11-04T05:48:24.375Z,99.90
2022-11-04T05:50:55.494Z,99.90
2022-11-04T05:55:55.980Z,99.90
2022-11-04T05:58:28.936Z,99.90
2022-11-04T06:01:18.226Z,99.90
2022-11-04T06:03:51.316Z,99.90
2022-11-04T06:06:22.577Z,99.90
2022-11-04T06:08:54.023Z,99.90
2022-11-04T06:11:25.831Z,99.90
2022-11-04T06:14:03.996Z,99.90
2022-11-04T06:16:34.540Z,99.90
2022-11-04T06:19:13.418Z,99.90
2022-11-04T06:21:46.185Z,99.90
2022-11-04T06:24:16.583Z,99.90
2022-11-04T06:26:46.764Z,99.90
2022-11-04T06:29:19.646Z,99.90
2022-11-04T06:31:49.914Z,99.90
2022-11-04T06:34:20.300Z,99.90
2022-11-04T06:36:59.815Z,99.90
2022-11-04T06:39:30.231Z,99.90
2022-11-04T06:42:02.538Z,99.90
2022-11-04T06:44:37.090Z,99.90
2022-11-04T06:47:07.493Z,99.90
2022-11-04T06:49:37.682Z,99.90
2022-11-04T06:52:08.209Z,99.90
2022-11-04T06:54:44.143Z,99.90
2022-11-04T06:57:20.344Z,99.90
2022-11-04T06:59:53.718Z,99.90
2022-11-04T07:02:24.153Z,99.90
2022-11-04T07:04:54.862Z,99.90
2022-11-04T07:07:25.166Z,99.90
2022-11-04T07:10:00.016Z,99.90
2022-11-04T07:12:30.895Z,99.90
2022-11-04T07:15:05.930Z,99.90
2022-11-04T07:17:36.075Z,99.90
2022-11-04T07:20:08.166Z,99.90
2022-11-04T07:22:38.223Z,99.90
2022-11-04T07:25:10.131Z,99.90
2022-11-04T07:27:40.463Z,99.90
2022-11-04T07:30:16.847Z,99.90
2022-11-04T07:32:50.240Z,99.90
2022-11-04T07:35:20.768Z,99.90
2022-11-04T07:37:51.219Z,99.90
2022-11-04T07:40:21.455Z,99.90
2022-11-04T07:42:51.617Z,99.90
2022-11-04T07:45:28.656Z,99.90
2022-11-04T07:48:02.212Z,99.90
2022-11-04T07:50:33.080Z,99.90
2022-11-04T07:53:07.356Z,99.90
2022-11-04T07:55:43.524Z,99.90
2022-11-04T07:58:14.570Z,99.90
2022-11-04T08:01:02.089Z,99.90
2022-11-04T08:03:38.292Z,99.90
2022-11-04T08:06:12.454Z,99.90
2022-11-04T08:08:45.997Z,99.90
2022-11-04T08:11:23.375Z,99.90
2022-11-04T08:13:53.809Z,99.90
2022-11-04T08:16:34.176Z,99.90
2022-11-04T08:19:05.065Z,99.90
2022-11-04T08:21:37.859Z,99.90
2022-11-04T08:24:08.982Z,99.90
2022-11-04T08:26:39.469Z,99.90
2022-11-04T08:29:13.057Z,99.90
2022-11-04T08:31:46.203Z,99.90
2022-11-04T08:34:18.389Z,99.90
2022-11-04T08:36:55.716Z,99.90
2022-11-04T08:39:29.925Z,99.90
2022-11-04T08:42:01.071Z,99.90
2022-11-04T08:44:31.386Z,66.90
2022-11-04T08:47:13.775Z,60.50
2022-11-04T08:49:44.153Z,54.10
2022-11-04T08:52:18.423Z,6.10
2022-11-04T08:54:57.167Z,1.00
2022-11-04T08:57:40.427Z,11.80
2022-11-04T09:00:12.968Z,13.60
2022-11-04T09:02:48.183Z,56.70
2022-11-04T09:05:18.989Z,86.00
2022-11-04T09:07:52.546Z,99.90
2022-11-04T09:10:22.793Z,99.90
2022-11-04T09:12:53.170Z,99.90
2022-11-04T09:15:26.489Z,99.90
2022-11-04T09:18:02.728Z,99.90
2022-11-04T09:20:33.635Z,99.90
2022-11-04T09:23:04.185Z,99.90
2022-11-04T09:25:35.013Z,99.90
2022-11-04T09:28:08.355Z,99.90
2022-11-04T09:30:39.714Z,99.90
2022-11-04T09:33:12.922Z,99.90
2022-11-04T09:35:45.475Z,99.90
2022-11-04T09:38:15.615Z,99.90
2022-11-04T09:40:45.694Z,99.90
2022-11-04T09:43:38.052Z,99.90
2022-11-04T09:46:09.176Z,99.90
2022-11-04T09:48:48.329Z,99.90
2022-11-04T09:51:48.388Z,99.90
2022-11-04T09:54:26.709Z,99.90
2022-11-04T09:57:05.147Z,99.90
2022-11-04T09:59:37.737Z,99.90
2022-11-04T10:02:34.837Z,99.90
2022-11-04T10:05:36.701Z,99.90
2022-11-04T10:08:42.675Z,99.90
2022-11-04T10:11:25.893Z,99.90
2022-11-04T10:14:20.984Z,99.90
2022-11-04T10:17:13.771Z,99.90
2022-11-04T10:20:13.458Z,99.90
2022-11-04T10:23:01.494Z,99.90
2022-11-04T10:25:46.481Z,99.90
2022-11-04T10:28:21.830Z,99.90
2022-11-04T10:30:56.107Z,99.90
2022-11-04T10:33:38.333Z,99.90
2022-11-04T10:36:13.138Z,99.90
2022-11-04T10:38:49.949Z,99.90
2022-11-04T10:41:32.965Z,99.90
2022-11-04T10:44:10.818Z,99.90
2022-11-04T10:46:58.072Z,99.90
2022-11-04T10:50:26.328Z,99.90
2022-11-04T10:52:47.379Z,99.90
2022-11-04T10:55:38.536Z,99.90
2022-11-04T10:58:21.452Z,99.90
2022-11-04T11:00:54.757Z,99.90
2022-11-04T11:03:35.468Z,99.90
2022-11-04T11:06:19.022Z,99.90
2022-11-04T11:08:50.359Z,99.90
2022-11-04T11:11:40.971Z,99.90
2022-11-04T11:14:39.836Z,99.90
2022-11-04T11:17:39.099Z,99.70
2022-11-04T11:20:24.416Z,99.90
2022-11-04T11:23:01.903Z,99.90
2022-11-04T11:25:36.701Z,99.90
2022-11-04T11:28:23.339Z,99.90
2022-11-04T11:31:26.376Z,99.90
2022-11-04T11:34:01.845Z,99.90
2022-11-04T11:36:40.269Z,99.90
2022-11-04T11:39:24.028Z,99.90
2022-11-04T11:42:04.622Z,99.90
2022-11-04T11:44:44.554Z,99.90
2022-11-04T11:47:42.394Z,99.90
2022-11-04T11:50:24.338Z,99.90
2022-11-04T11:52:55.550Z,99.90
2022-11-04T11:55:32.846Z,98.70
2022-11-04T12:01:25.137Z,99.90
2022-11-04T12:10:18.594Z,99.90
2022-11-04T12:13:23.618Z,99.90
2022-11-04T12:16:23.044Z,99.90
2022-11-04T12:19:42.608Z,99.90
2022-11-04T12:22:28.985Z,99.90
2022-11-04T12:25:14.925Z,99.90
2022-11-04T12:27:59.026Z,99.90
2022-11-04T12:30:38.179Z,99.90
2022-11-04T12:33:31.362Z,99.90
2022-11-04T12:36:23.366Z,99.90
2022-11-04T12:39:17.279Z,99.90
2022-11-04T12:42:22.467Z,99.90
2022-11-04T12:45:18.676Z,99.90
2022-11-04T12:47:50.561Z,99.90
2022-11-04T12:51:04.208Z,99.90
2022-11-04T12:54:04.950Z,99.90
2022-11-04T12:56:41.718Z,99.90
2022-11-04T12:59:45.503Z,99.90
2022-11-04T13:02:28.806Z,99.90
2022-11-04T13:05:12.416Z,99.90
2022-11-04T13:07:58.214Z,99.90
2022-11-04T13:10:41.835Z,99.90
2022-11-04T13:13:14.787Z,99.90
2022-11-04T13:15:52.621Z,99.90
2022-11-04T13:18:28.589Z,99.90
2022-11-04T13:21:07.037Z,99.90
2022-11-04T13:23:51.161Z,99.90
2022-11-04T13:26:22.066Z,99.90
2022-11-04T13:29:09.634Z,99.90
2022-11-04T13:31:55.643Z,99.90
2022-11-04T13:34:41.151Z,99.90
2022-11-04T13:37:24.777Z,99.90
2022-11-04T13:40:03.073Z,99.90
2022-11-04T13:43:17.748Z,99.90
2022-11-04T13:45:56.848Z,99.90
2022-11-04T13:48:32.431Z,99.90
2022-11-04T13:51:08.161Z,99.90
2022-11-04T13:53:54.030Z,99.90
2022-11-04T13:56:47.418Z,99.90
2022-11-04T13:59:31.189Z,99.90
2022-11-04T14:02:41.734Z,99.90
2022-11-04T14:06:06.860Z,99.90
2022-11-04T14:08:37.579Z,99.90
2022-11-04T14:11:14.551Z,99.90
2022-11-04T14:14:19.817Z,99.90
2022-11-04T14:16:50.162Z,99.90
2022-11-04T14:20:02.069Z,99.90
2022-11-04T14:22:54.453Z,99.90
2022-11-04T14:25:34.051Z,99.90
2022-11-04T14:28:30.373Z,99.90
2022-11-04T14:31:05.677Z,99.90
2022-11-04T14:33:53.754Z,99.90
2022-11-04T14:36:37.256Z,99.90
2022-11-04T14:39:24.226Z,99.90
2022-11-04T14:41:59.704Z,99.90
2022-11-04T14:44:42.413Z,99.90
2022-11-04T14:47:31.003Z,99.90
2022-11-04T14:50:08.755Z,99.90
2022-11-04T14:52:48.770Z,99.90
2022-11-04T14:55:23.236Z,99.90
2022-11-04T14:57:58.986Z,99.90
2022-11-04T15:00:37.990Z,99.90
2022-11-04T15:04:08.655Z,99.90
2022-11-04T15:06:13.523Z,99.90
2022-11-04T15:08:48.427Z,99.90
2022-11-04T15:11:43.506Z,99.90
2022-11-04T15:14:20.827Z,99.90
2022-11-04T15:16:56.056Z,99.90
2022-11-04T15:19:35.471Z,99.90
2022-11-04T15:22:08.766Z,99.90
2022-11-04T15:24:41.281Z,99.90
2022-11-04T15:27:19.731Z,99.90
2022-11-04T15:29:57.321Z,99.90
2022-11-04T15:32:28.392Z,99.90
2022-11-04T15:35:02.303Z,99.90
2022-11-04T15:37:34.070Z,99.90
2022-11-04T15:40:09.865Z,99.90
2022-11-04T15:42:39.855Z,99.90
2022-11-04T15:45:33.819Z,99.90
2022-11-04T15:48:31.198Z,99.90
2022-11-04T15:51:24.432Z,99.90
2022-11-04T15:54:02.793Z,99.90
2022-11-04T15:56:38.083Z,99.90
2022-11-04T15:59:15.406Z,99.90
2022-11-04T16:01:52.158Z,99.90
2022-11-04T16:04:26.383Z,99.90
2022-11-04T16:07:49.003Z,99.90
2022-11-04T16:10:34.726Z,99.90
2022-11-04T16:13:28.130Z,99.90
2022-11-04T16:16:27.281Z,99.90
2022-11-04T16:19:00.098Z,99.90
2022-11-04T16:21:33.325Z,99.90
2022-11-04T16:24:09.528Z,99.90
2022-11-04T16:26:44.656Z,99.90
2022-11-04T16:29:24.516Z,99.90
2022-11-04T16:32:19.205Z,99.90
2022-11-04T16:34:52.146Z,99.90
2022-11-04T16:37:22.425Z,99.90
2022-11-04T16:39:55.206Z,99.90
2022-11-04T16:42:26.270Z,99.90
2022-11-04T16:45:03.771Z,99.90
2022-11-04T16:47:38.517Z,99.90
2022-11-04T16:50:18.091Z,99.90
2022-11-04T16:52:48.648Z,99.90
2022-11-04T16:55:22.806Z,99.90
2022-11-04T16:58:03.257Z,99.90
2022-11-04T17:00:34.916Z,99.90
2022-11-04T17:03:21.563Z,99.90
2022-11-04T17:05:53.994Z,99.90
2022-11-04T17:08:24.211Z,99.90
2022-11-04T17:10:56.955Z,99.90
2022-11-04T17:13:29.829Z,99.90
2022-11-04T17:16:03.828Z,99.90
2022-11-04T17:18:36.117Z,99.90
2022-11-04T17:21:11.282Z,99.90
2022-11-04T17:23:41.651Z,99.90
2022-11-04T17:26:15.845Z,99.90
2022-11-04T17:28:48.898Z,99.90
2022-11-04T17:31:22.543Z,99.90
2022-11-04T17:33:52.675Z,99.90
2022-11-04T17:36:23.313Z,99.90
2022-11-04T17:38:56.232Z,99.90
2022-11-04T17:41:43.461Z,99.90
2022-11-04T17:44:13.634Z,99.90
2022-11-04T17:46:48.138Z,99.90
2022-11-04T17:49:21.240Z,99.90
2022-11-04T17:51:54.432Z,99.90
2022-11-04T17:54:26.438Z,99.90
2022-11-04T17:57:10.348Z,99.90
2022-11-04T17:59:43.498Z,99.90
2022-11-04T18:02:13.796Z,99.90
2022-11-04T18:04:44.111Z,99.90
2022-11-04T18:07:19.299Z,99.90
2022-11-04T18:09:49.370Z,99.90
2022-11-04T18:12:34.591Z,99.90
2022-11-04T18:15:04.708Z,99.90
2022-11-04T18:17:40.140Z,99.90
2022-11-04T18:20:14.826Z,99.90
2022-11-04T18:22:46.407Z,99.90
2022-11-04T18:25:19.671Z,99.90
2022-11-04T18:27:52.433Z,99.90
2022-11-04T18:30:23.185Z,99.90
2022-11-04T18:32:53.204Z,99.90
2022-11-04T18:35:25.589Z,99.90
2022-11-04T18:37:55.686Z,99.90
2022-11-04T18:40:26.094Z,99.90
2022-11-04T18:43:00.468Z,99.90
2022-11-04T18:45:33.383Z,99.90
2022-11-04T18:48:03.798Z,99.90
2022-11-04T18:50:35.039Z,99.90
2022-11-04T18:53:08.379Z,99.90
2022-11-04T18:55:41.693Z,99.90
2022-11-04T18:58:20.219Z,99.90
2022-11-04T19:00:53.372Z,99.90
2022-11-04T19:03:24.118Z,99.90
2022-11-04T19:05:54.228Z,99.90
2022-11-04T19:08:29.686Z,99.90
2022-11-04T19:11:01.520Z,99.90
2022-11-04T19:13:38.151Z,99.90
2022-11-04T19:16:10.470Z,99.90
2022-11-04T19:18:41.523Z,99.90
2022-11-04T19:21:15.505Z,99.90
2022-11-04T19:23:48.062Z,99.90
2022-11-04T19:26:21.863Z,99.90
2022-11-04T19:28:55.412Z,99.90
2022-11-04T19:31:29.894Z,99.90
2022-11-04T19:34:04.171Z,99.90
2022-11-04T19:36:41.922Z,99.90
2022-11-04T19:39:12.061Z,99.90
2022-11-04T19:41:54.900Z,99.90
2022-11-04T19:44:27.642Z,99.90
2022-11-04T19:46:57.879Z,99.90
2022-11-04T19:49:33.675Z,99.90
2022-11-04T19:52:03.805Z,99.90
2022-11-04T19:54:33.949Z,99.90
2022-11-04T19:57:04.321Z,99.90
2022-11-04T19:59:37.168Z,99.90
2022-11-04T20:02:07.552Z,99.90
2022-11-04T20:04:40.271Z,99.90
2022-11-04T20:07:10.357Z,99.90
2022-11-04T20:09:40.883Z,99.90
2022-11-04T20:12:30.028Z,99.90
2022-11-04T20:15:02.785Z,99.90
2022-11-04T20:17:35.007Z,99.90
2022-11-04T20:20:07.899Z,99.90
2022-11-04T20:22:38.002Z,99.90
2022-11-04T20:25:09.285Z,99.90
2022-11-04T20:27:39.800Z,99.90
2022-11-04T20:30:16.237Z,99.90
2022-11-04T20:32:46.452Z,99.90
2022-11-04T20:35:16.635Z,99.90
2022-11-04T20:37:47.119Z,99.90
2022-11-04T20:40:17.595Z,99.90
2022-11-04T20:42:56.222Z,99.90
2022-11-04T20:45:28.967Z,99.90
2022-11-04T20:48:04.265Z,99.90
2022-11-04T20:50:34.326Z,99.90
2022-11-04T20:53:04.434Z,99.90
2022-11-04T20:55:35.219Z,99.90
2022-11-04T20:58:06.377Z,99.90
2022-11-04T21:00:39.106Z,99.90
2022-11-04T21:03:09.222Z,99.90
2022-11-04T21:05:39.922Z,99.90
2022-11-04T21:08:18.601Z,99.90
2022-11-04T21:11:09.417Z,99.90
2022-11-04T21:13:59.895Z,99.90
2022-11-04T21:16:53.399Z,99.90
2022-11-04T21:19:23.743Z,99.90
2022-11-04T21:21:54.273Z,99.90
2022-11-04T21:24:24.524Z,99.90
2022-11-04T21:26:57.544Z,99.90
2022-11-04T21:29:27.626Z,99.90
2022-11-04T21:32:00.347Z,99.90
2022-11-04T21:34:32.992Z,99.90
2022-11-04T21:37:03.075Z,99.90
2022-11-04T21:39:33.360Z,99.90
2022-11-04T21:42:06.394Z,99.90
2022-11-04T21:44:37.127Z,99.90
2022-11-04T21:47:09.853Z,99.90
2022-11-04T21:49:39.913Z,99.90
2022-11-04T21:52:13.139Z,99.90
2022-11-04T21:54:43.201Z,99.90
2022-11-04T21:57:21.605Z,99.90
2022-11-04T21:59:54.577Z,99.90
2022-11-04T22:02:30.528Z,99.90
2022-11-04T22:05:03.687Z,99.90
2022-11-04T22:07:49.618Z,99.90
2022-11-04T22:10:20.021Z,99.90
2022-11-04T22:12:51.335Z,99.90
2022-11-04T22:15:34.652Z,99.90
2022-11-04T22:18:08.484Z,99.90
2022-11-04T22:20:41.578Z,99.90
2022-11-04T22:23:11.952Z,99.90
2022-11-04T22:25:47.315Z,99.90
2022-11-04T22:28:20.872Z,99.90
2022-11-04T22:30:50.938Z,99.90
2022-11-04T22:33:28.831Z,99.90
2022-11-04T22:36:01.506Z,99.90
2022-11-04T22:38:31.658Z,99.90
2022-11-04T22:41:04.202Z,99.90
2022-11-04T22:43:34.718Z,99.90
2022-11-04T22:46:13.106Z,99.90
2022-11-04T22:48:46.034Z,99.90
2022-11-04T22:51:18.400Z,99.90
2022-11-04T22:53:59.988Z,99.90
2022-11-04T22:56:31.603Z,99.90
2022-11-04T22:59:01.699Z,99.90
2022-11-04T23:01:33.792Z,99.90
2022-11-04T23:04:11.877Z,99.90
2022-11-04T23:06:43.079Z,99.90
2022-11-04T23:09:16.573Z,99.90
2022-11-04T23:11:59.572Z,99.90
2022-11-04T23:14:42.201Z,99.90
2022-11-04T23:17:36.676Z,99.90
2022-11-04T23:20:15.609Z,99.90
2022-11-04T23:22:58.133Z,99.90
2022-11-04T23:25:29.522Z,99.90
2022-11-04T23:28:18.022Z,99.90
2022-11-04T23:30:54.073Z,99.90
2022-11-04T23:33:44.447Z,99.90
2022-11-04T23:36:29.622Z,99.90
2022-11-04T23:38:59.710Z,99.90
2022-11-04T23:41:42.251Z,99.90
2022-11-04T23:44:32.310Z,99.90
2022-11-04T23:47:14.810Z,99.90
2022-11-04T23:49:57.647Z,99.90
2022-11-04T23:52:43.246Z,99.90
2022-11-04T23:55:33.148Z,99.90
2022-11-04T23:58:15.646Z,99.90
